TRA64R EHRD-LEMG
Flight info
| Callsign | TRA64R |
|---|---|
| Flight time | 2h 35m |
| Altitude | 35000 |
| Route | WOODY N872 CIV DCT KOVIN DCT DUCRA DCT RESMI DCT DEKOD DCT DISAK DCT ARKIP DCT ARNAV DCT LMG DCT UVELI DCT OSMOB DCT ARVID DCT PPN DCT NOLSA DCT ALEPO DCT VASUM N10 BAN DCT GOTOR DCT KAMPO DCT MONTO DCT CRISA DCT VULPE |
| Aircraft | A321/M-SDE3FGHIRWY/LB1 |
Departure
| Time | 2026-04-30 08:18 |
|---|---|
| Airport | Rotterdam The Hague Airport (EHRD) |
Arrival
| Time | 2026-04-30 10:53 |
|---|---|
| Airport | Málaga-Costa del Sol Airport (LEMG) |
| Time | Latitude | Longitude | Altitude | Speed | Heading |
|---|---|---|---|---|---|
| 2026-04-30 07:45 | 51.95017 | 4.43505 | 2 ft | 0 kts | 326° |
| 2026-04-30 07:45 | 51.95016 | 4.43507 | 1 ft | 0 kts | 326° |
| 2026-04-30 08:14 | 51.95018 | 4.43504 | 1 ft | 2 kts | 326° |
| 2026-04-30 08:14 | 51.95036 | 4.43485 | 1 ft | 3 kts | 328° |
| 2026-04-30 08:14 | 51.95054 | 4.43488 | 1 ft | 2 kts | 29° |
| 2026-04-30 08:15 | 51.95065 | 4.43513 | 1 ft | 3 kts | 54° |
| 2026-04-30 08:15 | 51.95081 | 4.43554 | 1 ft | 7 kts | 58° |
| 2026-04-30 08:15 | 51.95139 | 4.43547 | 1 ft | 12 kts | 326° |
| 2026-04-30 08:15 | 51.95219 | 4.43459 | 1 ft | 8 kts | 326° |
| 2026-04-30 08:16 | 51.95229 | 4.43368 | 1 ft | 12 kts | 240° |
| 2026-04-30 08:16 | 51.95177 | 4.43237 | 1 ft | 16 kts | 237° |
| 2026-04-30 08:16 | 51.95123 | 4.43071 | 1 ft | 16 kts | 245° |
| 2026-04-30 08:16 | 51.95143 | 4.42918 | 1 ft | 15 kts | 321° |
| 2026-04-30 08:17 | 51.95221 | 4.42866 | 2 ft | 10 kts | 26° |
| 2026-04-30 08:17 | 51.95269 | 4.42976 | 2 ft | 15 kts | 57° |
| 2026-04-30 08:17 | 51.95407 | 4.43320 | 0 ft | 77 kts | 57° |
| 2026-04-30 08:17 | 51.95835 | 4.44399 | 0 ft | 150 kts | 56° |
| 2026-04-30 08:18 | 51.96463 | 4.45948 | 646 ft | 163 kts | 60° |
| 2026-04-30 08:18 | 51.97049 | 4.47518 | 1624 ft | 167 kts | 65° |
| 2026-04-30 08:18 | 51.97668 | 4.49231 | 2211 ft | 182 kts | 66° |
| 2026-04-30 08:18 | 51.98342 | 4.51102 | 2395 ft | 204 kts | 66° |
| 2026-04-30 08:19 | 51.99038 | 4.53229 | 2705 ft | 221 kts | 75° |
| 2026-04-30 08:19 | 51.99124 | 4.55742 | 3210 ft | 228 kts | 105° |
| 2026-04-30 08:19 | 51.98357 | 4.57985 | 3990 ft | 234 kts | 134° |
| 2026-04-30 08:19 | 51.96914 | 4.59215 | 4729 ft | 249 kts | 165° |
| 2026-04-30 08:20 | 51.95134 | 4.58976 | 5496 ft | 264 kts | 187° |
| 2026-04-30 08:20 | 51.93334 | 4.58254 | 6233 ft | 268 kts | 189° |
| 2026-04-30 08:20 | 51.91519 | 4.57483 | 6980 ft | 271 kts | 189° |
| 2026-04-30 08:20 | 51.89680 | 4.56694 | 7685 ft | 275 kts | 189° |
| 2026-04-30 08:21 | 51.87818 | 4.55900 | 8380 ft | 279 kts | 189° |
| 2026-04-30 08:21 | 51.85924 | 4.55102 | 9070 ft | 283 kts | 189° |
| 2026-04-30 08:21 | 51.84003 | 4.54301 | 9750 ft | 287 kts | 189° |
| 2026-04-30 08:21 | 51.82055 | 4.53495 | 10424 ft | 291 kts | 188° |
| 2026-04-30 08:22 | 51.80076 | 4.52685 | 10767 ft | 306 kts | 189° |
| 2026-04-30 08:22 | 51.77933 | 4.51821 | 10897 ft | 329 kts | 189° |
| 2026-04-30 08:22 | 51.75652 | 4.50901 | 11192 ft | 343 kts | 189° |
| 2026-04-30 08:22 | 51.73311 | 4.49950 | 11751 ft | 349 kts | 189° |
| 2026-04-30 08:23 | 51.70934 | 4.48978 | 12354 ft | 353 kts | 190° |
| 2026-04-30 08:23 | 51.68538 | 4.47996 | 12968 ft | 356 kts | 190° |
| 2026-04-30 08:23 | 51.66153 | 4.47018 | 13564 ft | 360 kts | 190° |
| 2026-04-30 08:23 | 51.63710 | 4.46019 | 14180 ft | 364 kts | 190° |
| 2026-04-30 08:24 | 51.61235 | 4.45009 | 14729 ft | 368 kts | 191° |
| 2026-04-30 08:24 | 51.58745 | 4.43997 | 15294 ft | 371 kts | 191° |
| 2026-04-30 08:24 | 51.56238 | 4.42981 | 15852 ft | 374 kts | 191° |
| 2026-04-30 08:24 | 51.53706 | 4.41954 | 16418 ft | 376 kts | 191° |
| 2026-04-30 08:25 | 51.51153 | 4.40918 | 16966 ft | 379 kts | 191° |
| 2026-04-30 08:25 | 51.48578 | 4.39875 | 17521 ft | 383 kts | 191° |
| 2026-04-30 08:25 | 51.45986 | 4.38831 | 18063 ft | 386 kts | 191° |
| 2026-04-30 08:25 | 51.43370 | 4.37782 | 18618 ft | 388 kts | 191° |
| 2026-04-30 08:26 | 51.40774 | 4.36656 | 19052 ft | 393 kts | 197° |
| 2026-04-30 08:26 | 51.38249 | 4.34898 | 19496 ft | 398 kts | 203° |
| 2026-04-30 08:26 | 51.35743 | 4.32973 | 19952 ft | 400 kts | 203° |
| 2026-04-30 08:26 | 51.33211 | 4.31047 | 20390 ft | 403 kts | 203° |
| 2026-04-30 08:27 | 51.30672 | 4.29126 | 20821 ft | 405 kts | 202° |
| 2026-04-30 08:27 | 51.28112 | 4.27191 | 21254 ft | 408 kts | 203° |
| 2026-04-30 08:27 | 51.25535 | 4.25242 | 21709 ft | 411 kts | 203° |
| 2026-04-30 08:27 | 51.22943 | 4.23277 | 22135 ft | 414 kts | 203° |
| 2026-04-30 08:28 | 51.20334 | 4.21299 | 22556 ft | 416 kts | 203° |
| 2026-04-30 08:28 | 51.17711 | 4.19312 | 22980 ft | 419 kts | 203° |
| 2026-04-30 08:28 | 51.15008 | 4.17560 | 23385 ft | 420 kts | 197° |
| 2026-04-30 08:28 | 51.12235 | 4.16039 | 23798 ft | 422 kts | 196° |
| 2026-04-30 08:29 | 51.09477 | 4.14534 | 24147 ft | 425 kts | 197° |
| 2026-04-30 08:29 | 51.06669 | 4.12997 | 24499 ft | 427 kts | 197° |
| 2026-04-30 08:29 | 51.03856 | 4.11457 | 24847 ft | 429 kts | 196° |
| 2026-04-30 08:29 | 51.01029 | 4.09912 | 25196 ft | 431 kts | 196° |
| 2026-04-30 08:30 | 50.98192 | 4.08362 | 25539 ft | 433 kts | 196° |
| 2026-04-30 08:30 | 50.95340 | 4.06809 | 25882 ft | 435 kts | 196° |
| 2026-04-30 08:30 | 50.92468 | 4.05249 | 26216 ft | 436 kts | 196° |
| 2026-04-30 08:30 | 50.89584 | 4.03684 | 26547 ft | 438 kts | 196° |
| 2026-04-30 08:31 | 50.86697 | 4.02090 | 26875 ft | 441 kts | 197° |
| 2026-04-30 08:31 | 50.83822 | 4.00356 | 27203 ft | 443 kts | 199° |
| 2026-04-30 08:31 | 50.80964 | 3.98508 | 27516 ft | 446 kts | 200° |
| 2026-04-30 08:31 | 50.78099 | 3.96598 | 27846 ft | 448 kts | 200° |
| 2026-04-30 08:32 | 50.75218 | 3.94673 | 28162 ft | 450 kts | 199° |
| 2026-04-30 08:32 | 50.72316 | 3.92765 | 28472 ft | 451 kts | 199° |
| 2026-04-30 08:32 | 50.69406 | 3.90885 | 28772 ft | 453 kts | 199° |
| 2026-04-30 08:32 | 50.66474 | 3.89016 | 29059 ft | 455 kts | 199° |
| 2026-04-30 08:33 | 50.63533 | 3.87157 | 29340 ft | 457 kts | 198° |
| 2026-04-30 08:33 | 50.60568 | 3.85291 | 29608 ft | 459 kts | 198° |
| 2026-04-30 08:33 | 50.57643 | 3.83452 | 29898 ft | 460 kts | 198° |
| 2026-04-30 08:33 | 50.54657 | 3.81534 | 30195 ft | 462 kts | 199° |
| 2026-04-30 08:34 | 50.51690 | 3.79543 | 30453 ft | 464 kts | 200° |
| 2026-04-30 08:34 | 50.48723 | 3.77493 | 30723 ft | 465 kts | 200° |
| 2026-04-30 08:34 | 50.45772 | 3.75429 | 31086 ft | 464 kts | 200° |
| 2026-04-30 08:34 | 50.43819 | 3.74064 | 31309 ft | 463 kts | 200° |
| 2026-04-30 08:35 | 50.40871 | 3.72018 | 31664 ft | 462 kts | 200° |
| 2026-04-30 08:35 | 50.37925 | 3.69995 | 32020 ft | 461 kts | 200° |
| 2026-04-30 08:35 | 50.34986 | 3.68000 | 32390 ft | 459 kts | 199° |
| 2026-04-30 08:35 | 50.32053 | 3.66025 | 32807 ft | 457 kts | 199° |
| 2026-04-30 08:36 | 50.29130 | 3.64061 | 33184 ft | 456 kts | 199° |
| 2026-04-30 08:36 | 50.26222 | 3.62108 | 33532 ft | 455 kts | 199° |
| 2026-04-30 08:36 | 50.23316 | 3.60155 | 33877 ft | 454 kts | 199° |
| 2026-04-30 08:36 | 50.20453 | 3.58227 | 34216 ft | 453 kts | 200° |
| 2026-04-30 08:37 | 50.17557 | 3.56272 | 34505 ft | 452 kts | 200° |
| 2026-04-30 08:37 | 50.14669 | 3.54327 | 34784 ft | 451 kts | 200° |
| 2026-04-30 08:37 | 50.11784 | 3.52389 | 35059 ft | 451 kts | 200° |
| 2026-04-30 08:37 | 50.08894 | 3.50451 | 35229 ft | 451 kts | 200° |
| 2026-04-30 08:38 | 50.06023 | 3.48532 | 35265 ft | 448 kts | 200° |
| 2026-04-30 08:38 | 50.00309 | 3.44718 | 35257 ft | 445 kts | 200° |
| 2026-04-30 08:39 | 49.94653 | 3.40954 | 35257 ft | 445 kts | 200° |
| 2026-04-30 08:39 | 49.88949 | 3.37171 | 35251 ft | 445 kts | 200° |
| 2026-04-30 08:40 | 49.83251 | 3.33392 | 35256 ft | 444 kts | 200° |
| 2026-04-30 08:40 | 49.77560 | 3.29633 | 35250 ft | 444 kts | 200° |
| 2026-04-30 08:41 | 49.71868 | 3.25897 | 35242 ft | 445 kts | 200° |
| 2026-04-30 08:41 | 49.66173 | 3.22153 | 35244 ft | 445 kts | 200° |
| 2026-04-30 08:42 | 49.60502 | 3.18425 | 35230 ft | 445 kts | 200° |
| 2026-04-30 08:42 | 49.54793 | 3.14686 | 35224 ft | 446 kts | 200° |
| 2026-04-30 08:43 | 49.49083 | 3.10892 | 35232 ft | 447 kts | 204° |
| 2026-04-30 08:43 | 49.43828 | 3.05815 | 35229 ft | 450 kts | 211° |
| 2026-04-30 08:44 | 49.38606 | 3.00496 | 35215 ft | 450 kts | 210° |
| 2026-04-30 08:44 | 49.33369 | 2.95194 | 35214 ft | 450 kts | 210° |
| 2026-04-30 08:45 | 49.28169 | 2.89936 | 35214 ft | 450 kts | 210° |
| 2026-04-30 08:45 | 49.22937 | 2.84660 | 35220 ft | 450 kts | 210° |
| 2026-04-30 08:46 | 49.17703 | 2.79408 | 35210 ft | 450 kts | 210° |
| 2026-04-30 08:46 | 49.12472 | 2.74164 | 35205 ft | 450 kts | 210° |
| 2026-04-30 08:47 | 49.07240 | 2.68924 | 35203 ft | 449 kts | 210° |
| 2026-04-30 08:47 | 49.01998 | 2.63686 | 35218 ft | 449 kts | 210° |
| 2026-04-30 08:48 | 48.96810 | 2.58522 | 35219 ft | 447 kts | 210° |
| 2026-04-30 08:48 | 48.91605 | 2.53355 | 35218 ft | 446 kts | 210° |
| 2026-04-30 08:49 | 48.86412 | 2.48225 | 35217 ft | 445 kts | 210° |
| 2026-04-30 08:49 | 48.81222 | 2.43100 | 35212 ft | 444 kts | 210° |
| 2026-04-30 08:50 | 48.76038 | 2.37979 | 35210 ft | 444 kts | 210° |
| 2026-04-30 08:50 | 48.70861 | 2.32883 | 35207 ft | 444 kts | 210° |
| 2026-04-30 08:51 | 48.65710 | 2.27846 | 35202 ft | 443 kts | 210° |
| 2026-04-30 08:51 | 48.60523 | 2.22774 | 35198 ft | 443 kts | 210° |
| 2026-04-30 08:52 | 48.55035 | 2.18712 | 35179 ft | 437 kts | 194° |
| 2026-04-30 08:52 | 48.49117 | 2.16697 | 35172 ft | 435 kts | 189° |
| 2026-04-30 08:53 | 48.43218 | 2.14795 | 35166 ft | 435 kts | 189° |
| 2026-04-30 08:53 | 48.37287 | 2.12870 | 35141 ft | 436 kts | 189° |
| 2026-04-30 08:54 | 48.31339 | 2.10962 | 35139 ft | 436 kts | 188° |
| 2026-04-30 08:54 | 48.25341 | 2.10626 | 35144 ft | 431 kts | 170° |
| 2026-04-30 08:55 | 48.19407 | 2.11889 | 35141 ft | 431 kts | 170° |
| 2026-04-30 08:55 | 48.13433 | 2.12915 | 35122 ft | 434 kts | 178° |
| 2026-04-30 08:56 | 48.07408 | 2.12023 | 35113 ft | 437 kts | 186° |
| 2026-04-30 08:56 | 48.01405 | 2.10864 | 35123 ft | 438 kts | 185° |
| 2026-04-30 08:57 | 47.95349 | 2.09715 | 35126 ft | 439 kts | 186° |
| 2026-04-30 08:57 | 47.89275 | 2.08570 | 35126 ft | 439 kts | 186° |
| 2026-04-30 08:58 | 47.83241 | 2.07426 | 35132 ft | 440 kts | 186° |
| 2026-04-30 08:58 | 47.77161 | 2.06263 | 35112 ft | 440 kts | 186° |
| 2026-04-30 08:59 | 47.71083 | 2.05106 | 35113 ft | 440 kts | 186° |
| 2026-04-30 08:59 | 47.64994 | 2.03926 | 35106 ft | 441 kts | 189° |
| 2026-04-30 09:00 | 47.59183 | 2.01232 | 35094 ft | 442 kts | 200° |
| 2026-04-30 09:00 | 47.53454 | 1.97900 | 35089 ft | 442 kts | 200° |
| 2026-04-30 09:01 | 47.47718 | 1.94582 | 35107 ft | 442 kts | 200° |
| 2026-04-30 09:01 | 47.41992 | 1.91283 | 35104 ft | 441 kts | 200° |
| 2026-04-30 09:02 | 47.33404 | 1.86329 | 35123 ft | 441 kts | 200° |
| 2026-04-30 09:02 | 47.27724 | 1.83065 | 35125 ft | 440 kts | 200° |
| 2026-04-30 09:03 | 47.22011 | 1.79795 | 35121 ft | 440 kts | 200° |
| 2026-04-30 09:03 | 47.16292 | 1.76551 | 35115 ft | 440 kts | 200° |
| 2026-04-30 09:04 | 47.10571 | 1.73335 | 35103 ft | 439 kts | 199° |
| 2026-04-30 09:04 | 47.04903 | 1.70152 | 35102 ft | 438 kts | 199° |
| 2026-04-30 09:05 | 46.99204 | 1.66951 | 35099 ft | 438 kts | 200° |
| 2026-04-30 09:05 | 46.93511 | 1.63755 | 35098 ft | 437 kts | 199° |
| 2026-04-30 09:06 | 46.87832 | 1.60588 | 35106 ft | 437 kts | 199° |
| 2026-04-30 09:06 | 46.82160 | 1.57432 | 35104 ft | 436 kts | 199° |
| 2026-04-30 09:07 | 46.76521 | 1.54300 | 35104 ft | 435 kts | 199° |
| 2026-04-30 09:07 | 46.70858 | 1.51162 | 35095 ft | 435 kts | 199° |
| 2026-04-30 09:08 | 46.65198 | 1.48025 | 35089 ft | 435 kts | 199° |
| 2026-04-30 09:08 | 46.59526 | 1.44892 | 35093 ft | 435 kts | 199° |
| 2026-04-30 09:09 | 46.53867 | 1.41774 | 35097 ft | 435 kts | 199° |
| 2026-04-30 09:09 | 46.48208 | 1.38662 | 35095 ft | 435 kts | 199° |
| 2026-04-30 09:10 | 46.42550 | 1.35556 | 35092 ft | 435 kts | 199° |
| 2026-04-30 09:10 | 46.36884 | 1.32462 | 35091 ft | 435 kts | 199° |
| 2026-04-30 09:11 | 46.31258 | 1.29396 | 35102 ft | 434 kts | 199° |
| 2026-04-30 09:11 | 46.25591 | 1.26306 | 35104 ft | 434 kts | 199° |
| 2026-04-30 09:12 | 46.19940 | 1.23229 | 35119 ft | 434 kts | 199° |
| 2026-04-30 09:12 | 46.14284 | 1.20158 | 35107 ft | 434 kts | 199° |
| 2026-04-30 09:13 | 46.08670 | 1.17128 | 35127 ft | 432 kts | 199° |
| 2026-04-30 09:13 | 46.03039 | 1.14094 | 35123 ft | 431 kts | 199° |
| 2026-04-30 09:14 | 45.97434 | 1.11073 | 35126 ft | 430 kts | 199° |
| 2026-04-30 09:14 | 45.91854 | 1.08071 | 35138 ft | 429 kts | 199° |
| 2026-04-30 09:15 | 45.86272 | 1.05067 | 35132 ft | 428 kts | 199° |
| 2026-04-30 09:15 | 45.80884 | 1.01478 | 35124 ft | 430 kts | 212° |
| 2026-04-30 09:16 | 45.76214 | 0.96084 | 35112 ft | 431 kts | 218° |
| 2026-04-30 09:16 | 45.71602 | 0.90560 | 35089 ft | 432 kts | 218° |
| 2026-04-30 09:17 | 45.66968 | 0.85045 | 35089 ft | 432 kts | 217° |
| 2026-04-30 09:17 | 45.62365 | 0.79571 | 35087 ft | 433 kts | 218° |
| 2026-04-30 09:18 | 45.57727 | 0.74058 | 35092 ft | 433 kts | 217° |
| 2026-04-30 09:18 | 45.53091 | 0.68550 | 35085 ft | 434 kts | 217° |
| 2026-04-30 09:19 | 45.48445 | 0.63047 | 35084 ft | 434 kts | 217° |
| 2026-04-30 09:19 | 45.43796 | 0.57552 | 35083 ft | 434 kts | 217° |
| 2026-04-30 09:20 | 45.39166 | 0.52093 | 35081 ft | 434 kts | 217° |
| 2026-04-30 09:20 | 45.34503 | 0.46612 | 35094 ft | 434 kts | 217° |
| 2026-04-30 09:21 | 45.29846 | 0.41146 | 35094 ft | 434 kts | 217° |
| 2026-04-30 09:21 | 45.25182 | 0.35692 | 35107 ft | 434 kts | 217° |
| 2026-04-30 09:22 | 45.21307 | 0.31168 | 35107 ft | 434 kts | 217° |
| 2026-04-30 09:22 | 45.16644 | 0.25726 | 35104 ft | 434 kts | 218° |
| 2026-04-30 09:23 | 45.11979 | 0.20284 | 35109 ft | 433 kts | 218° |
| 2026-04-30 09:23 | 45.07319 | 0.14871 | 35108 ft | 432 kts | 218° |
| 2026-04-30 09:24 | 45.02688 | 0.09521 | 35108 ft | 432 kts | 218° |
| 2026-04-30 09:24 | 44.98034 | 0.04145 | 35117 ft | 432 kts | 218° |
| 2026-04-30 09:25 | 44.93392 | -0.01214 | 35140 ft | 429 kts | 218° |
| 2026-04-30 09:25 | 44.88779 | -0.06526 | 35126 ft | 427 kts | 218° |
| 2026-04-30 09:26 | 44.84171 | -0.11827 | 35118 ft | 426 kts | 218° |
| 2026-04-30 09:26 | 44.79575 | -0.17096 | 35113 ft | 425 kts | 217° |
| 2026-04-30 09:27 | 44.74980 | -0.22358 | 35109 ft | 425 kts | 217° |
| 2026-04-30 09:27 | 44.70417 | -0.27568 | 35104 ft | 425 kts | 217° |
| 2026-04-30 09:28 | 44.65808 | -0.32778 | 35096 ft | 424 kts | 214° |
| 2026-04-30 09:28 | 44.60715 | -0.36899 | 35094 ft | 422 kts | 206° |
| 2026-04-30 09:29 | 44.55546 | -0.40710 | 35095 ft | 421 kts | 207° |
| 2026-04-30 09:29 | 44.50352 | -0.44539 | 35087 ft | 421 kts | 207° |
| 2026-04-30 09:30 | 44.45158 | -0.48347 | 35084 ft | 421 kts | 206° |
| 2026-04-30 09:30 | 44.39966 | -0.52147 | 35088 ft | 421 kts | 207° |
| 2026-04-30 09:31 | 44.34792 | -0.55918 | 35086 ft | 421 kts | 207° |
| 2026-04-30 09:31 | 44.29591 | -0.59707 | 35087 ft | 421 kts | 207° |
| 2026-04-30 09:32 | 44.24392 | -0.63492 | 35085 ft | 421 kts | 207° |
| 2026-04-30 09:32 | 44.19188 | -0.67273 | 35086 ft | 421 kts | 207° |
| 2026-04-30 09:33 | 44.14033 | -0.71005 | 35088 ft | 420 kts | 207° |
| 2026-04-30 09:33 | 44.08842 | -0.74747 | 35089 ft | 420 kts | 207° |
| 2026-04-30 09:34 | 44.03648 | -0.78488 | 35095 ft | 420 kts | 207° |
| 2026-04-30 09:34 | 43.98463 | -0.82232 | 35090 ft | 419 kts | 208° |
| 2026-04-30 09:35 | 43.93306 | -0.85942 | 35089 ft | 419 kts | 208° |
| 2026-04-30 09:35 | 43.88123 | -0.89660 | 35086 ft | 418 kts | 207° |
| 2026-04-30 09:36 | 43.82941 | -0.93365 | 35067 ft | 418 kts | 207° |
| 2026-04-30 09:36 | 43.77774 | -0.97057 | 35089 ft | 418 kts | 208° |
| 2026-04-30 09:37 | 43.72643 | -1.00717 | 35093 ft | 417 kts | 208° |
| 2026-04-30 09:37 | 43.67477 | -1.04388 | 35091 ft | 417 kts | 208° |
| 2026-04-30 09:38 | 43.62311 | -1.08054 | 35083 ft | 417 kts | 208° |
| 2026-04-30 09:38 | 43.57149 | -1.11717 | 35079 ft | 417 kts | 208° |
| 2026-04-30 09:39 | 43.51993 | -1.15364 | 35087 ft | 417 kts | 208° |
| 2026-04-30 09:39 | 43.46820 | -1.19014 | 35076 ft | 417 kts | 208° |
| 2026-04-30 09:40 | 43.41677 | -1.22633 | 35055 ft | 418 kts | 210° |
| 2026-04-30 09:40 | 43.36498 | -1.26281 | 35064 ft | 418 kts | 210° |
| 2026-04-30 09:41 | 43.31316 | -1.29914 | 35074 ft | 418 kts | 210° |
| 2026-04-30 09:41 | 43.26121 | -1.33555 | 35075 ft | 418 kts | 210° |
| 2026-04-30 09:42 | 43.20933 | -1.37185 | 35063 ft | 418 kts | 211° |
| 2026-04-30 09:42 | 43.15780 | -1.40781 | 35080 ft | 418 kts | 210° |
| 2026-04-30 09:43 | 43.10605 | -1.44382 | 35084 ft | 417 kts | 210° |
| 2026-04-30 09:43 | 43.05427 | -1.47983 | 35082 ft | 417 kts | 210° |
| 2026-04-30 09:44 | 43.00261 | -1.51579 | 35072 ft | 417 kts | 211° |
| 2026-04-30 09:44 | 42.95135 | -1.55149 | 35094 ft | 415 kts | 212° |
| 2026-04-30 09:45 | 42.89986 | -1.58724 | 35100 ft | 414 kts | 212° |
| 2026-04-30 09:45 | 42.84845 | -1.62287 | 35128 ft | 414 kts | 212° |
| 2026-04-30 09:46 | 42.79707 | -1.65829 | 35123 ft | 413 kts | 212° |
| 2026-04-30 09:46 | 42.74570 | -1.69366 | 35115 ft | 413 kts | 212° |
| 2026-04-30 09:47 | 42.69454 | -1.72857 | 35121 ft | 413 kts | 211° |
| 2026-04-30 09:47 | 42.64289 | -1.76324 | 35113 ft | 413 kts | 211° |
| 2026-04-30 09:48 | 42.59128 | -1.79787 | 35100 ft | 413 kts | 211° |
| 2026-04-30 09:48 | 42.54008 | -1.83219 | 35097 ft | 412 kts | 211° |
| 2026-04-30 09:49 | 42.48858 | -1.86664 | 35098 ft | 412 kts | 211° |
| 2026-04-30 09:49 | 42.43716 | -1.90097 | 35093 ft | 412 kts | 211° |
| 2026-04-30 09:50 | 42.38596 | -1.93510 | 35077 ft | 411 kts | 211° |
| 2026-04-30 09:50 | 42.33453 | -1.96934 | 35085 ft | 411 kts | 212° |
| 2026-04-30 09:51 | 42.28325 | -2.00346 | 35085 ft | 410 kts | 212° |
| 2026-04-30 09:51 | 42.23230 | -2.03732 | 35081 ft | 410 kts | 212° |
| 2026-04-30 09:52 | 42.18103 | -2.07116 | 35080 ft | 410 kts | 211° |
| 2026-04-30 09:52 | 42.12970 | -2.10499 | 35074 ft | 410 kts | 212° |
| 2026-04-30 09:53 | 42.07848 | -2.13882 | 35077 ft | 410 kts | 212° |
| 2026-04-30 09:53 | 42.02721 | -2.17258 | 35078 ft | 409 kts | 212° |
| 2026-04-30 09:54 | 41.97597 | -2.20619 | 35075 ft | 409 kts | 212° |
| 2026-04-30 09:54 | 41.92505 | -2.23953 | 35066 ft | 409 kts | 212° |
| 2026-04-30 09:55 | 41.87385 | -2.27311 | 35076 ft | 409 kts | 212° |
| 2026-04-30 09:55 | 41.82268 | -2.30663 | 35079 ft | 409 kts | 212° |
| 2026-04-30 09:56 | 41.77189 | -2.33986 | 35078 ft | 409 kts | 212° |
| 2026-04-30 09:56 | 41.72063 | -2.37323 | 35070 ft | 409 kts | 212° |
| 2026-04-30 09:57 | 41.66947 | -2.40649 | 35078 ft | 409 kts | 212° |
| 2026-04-30 09:57 | 41.61850 | -2.43954 | 35085 ft | 408 kts | 212° |
| 2026-04-30 09:58 | 41.56725 | -2.47275 | 35092 ft | 409 kts | 212° |
| 2026-04-30 09:58 | 41.51591 | -2.50591 | 35070 ft | 408 kts | 212° |
| 2026-04-30 09:59 | 41.41388 | -2.57166 | 35095 ft | 407 kts | 212° |
| 2026-04-30 10:00 | 41.33768 | -2.62060 | 35101 ft | 406 kts | 212° |
| 2026-04-30 10:01 | 41.26765 | -2.68122 | 35076 ft | 399 kts | 219° |
| 2026-04-30 10:02 | 41.19907 | -2.74449 | 35083 ft | 400 kts | 219° |
| 2026-04-30 10:02 | 41.15350 | -2.78628 | 35090 ft | 400 kts | 219° |
| 2026-04-30 10:03 | 41.10751 | -2.82841 | 35091 ft | 400 kts | 219° |
| 2026-04-30 10:03 | 41.06166 | -2.87036 | 35078 ft | 400 kts | 219° |
| 2026-04-30 10:04 | 41.01586 | -2.91219 | 35085 ft | 400 kts | 219° |
| 2026-04-30 10:04 | 40.96988 | -2.95402 | 35088 ft | 401 kts | 219° |
| 2026-04-30 10:05 | 40.92407 | -2.99577 | 35091 ft | 401 kts | 219° |
| 2026-04-30 10:05 | 40.87822 | -3.03756 | 35094 ft | 401 kts | 219° |
| 2026-04-30 10:06 | 40.83206 | -3.07943 | 35089 ft | 402 kts | 218° |
| 2026-04-30 10:06 | 40.78589 | -3.12117 | 35093 ft | 402 kts | 218° |
| 2026-04-30 10:07 | 40.73970 | -3.16291 | 35108 ft | 402 kts | 218° |
| 2026-04-30 10:07 | 40.69382 | -3.20428 | 35091 ft | 402 kts | 218° |
| 2026-04-30 10:08 | 40.64762 | -3.24594 | 35103 ft | 402 kts | 218° |
| 2026-04-30 10:08 | 40.60139 | -3.28757 | 35113 ft | 403 kts | 218° |
| 2026-04-30 10:09 | 40.55509 | -3.32909 | 35117 ft | 403 kts | 218° |
| 2026-04-30 10:09 | 40.50864 | -3.37065 | 35118 ft | 403 kts | 218° |
| 2026-04-30 10:10 | 40.46235 | -3.41204 | 35116 ft | 403 kts | 218° |
| 2026-04-30 10:10 | 40.41627 | -3.45324 | 35093 ft | 403 kts | 217° |
| 2026-04-30 10:11 | 40.36989 | -3.49462 | 35100 ft | 403 kts | 217° |
| 2026-04-30 10:11 | 40.33126 | -3.52904 | 35107 ft | 403 kts | 217° |
| 2026-04-30 10:12 | 40.27716 | -3.57716 | 35134 ft | 403 kts | 217° |
| 2026-04-30 10:12 | 40.23820 | -3.61169 | 35127 ft | 403 kts | 217° |
| 2026-04-30 10:13 | 40.19193 | -3.65259 | 35112 ft | 403 kts | 217° |
| 2026-04-30 10:13 | 40.14528 | -3.69388 | 35111 ft | 404 kts | 217° |
| 2026-04-30 10:14 | 40.09869 | -3.73502 | 35109 ft | 404 kts | 217° |
| 2026-04-30 10:14 | 40.02892 | -3.79652 | 35092 ft | 405 kts | 217° |
| 2026-04-30 10:15 | 39.98216 | -3.83761 | 35106 ft | 405 kts | 217° |
| 2026-04-30 10:15 | 39.93563 | -3.87851 | 35084 ft | 405 kts | 216° |
| 2026-04-30 10:16 | 39.88874 | -3.91959 | 35088 ft | 406 kts | 216° |
| 2026-04-30 10:17 | 39.81827 | -3.98123 | 35091 ft | 406 kts | 216° |
| 2026-04-30 10:17 | 39.74811 | -4.04251 | 35089 ft | 407 kts | 216° |
| 2026-04-30 10:18 | 39.70107 | -4.08344 | 35080 ft | 407 kts | 216° |
| 2026-04-30 10:19 | 39.63031 | -4.14481 | 35087 ft | 407 kts | 216° |
| 2026-04-30 10:19 | 39.58349 | -4.18541 | 35087 ft | 407 kts | 216° |
| 2026-04-30 10:20 | 39.53633 | -4.22625 | 35091 ft | 407 kts | 216° |
| 2026-04-30 10:20 | 39.46555 | -4.28748 | 35082 ft | 407 kts | 215° |
| 2026-04-30 10:21 | 39.41859 | -4.32793 | 35081 ft | 408 kts | 215° |
| 2026-04-30 10:21 | 39.37128 | -4.36871 | 35082 ft | 408 kts | 215° |
| 2026-04-30 10:22 | 39.32396 | -4.40935 | 35082 ft | 408 kts | 215° |
| 2026-04-30 10:22 | 39.27692 | -4.44961 | 35083 ft | 408 kts | 215° |
| 2026-04-30 10:23 | 39.22841 | -4.48805 | 35075 ft | 410 kts | 206° |
| 2026-04-30 10:23 | 39.17309 | -4.50725 | 35075 ft | 415 kts | 192° |
| 2026-04-30 10:24 | 39.11590 | -4.51904 | 35077 ft | 415 kts | 192° |
| 2026-04-30 10:24 | 39.05924 | -4.53105 | 35072 ft | 415 kts | 192° |
| 2026-04-30 10:25 | 39.00206 | -4.54313 | 35061 ft | 416 kts | 192° |
| 2026-04-30 10:25 | 38.94489 | -4.55513 | 35069 ft | 416 kts | 192° |
| 2026-04-30 10:26 | 38.88758 | -4.56711 | 35083 ft | 416 kts | 192° |
| 2026-04-30 10:26 | 38.83071 | -4.57895 | 35104 ft | 416 kts | 191° |
| 2026-04-30 10:27 | 38.77337 | -4.59084 | 35098 ft | 416 kts | 191° |
| 2026-04-30 10:27 | 38.71646 | -4.60264 | 35100 ft | 416 kts | 191° |
| 2026-04-30 10:28 | 38.65928 | -4.61454 | 35097 ft | 416 kts | 191° |
| 2026-04-30 10:28 | 38.60208 | -4.62566 | 35096 ft | 416 kts | 189° |
| 2026-04-30 10:29 | 38.57326 | -4.62963 | 34885 ft | 417 kts | 187° |
| 2026-04-30 10:29 | 38.54425 | -4.63278 | 34637 ft | 417 kts | 187° |
| 2026-04-30 10:29 | 38.51534 | -4.63555 | 34400 ft | 417 kts | 186° |
| 2026-04-30 10:29 | 38.48681 | -4.63829 | 34040 ft | 414 kts | 187° |
| 2026-04-30 10:30 | 38.45813 | -4.64123 | 33476 ft | 411 kts | 187° |
| 2026-04-30 10:30 | 38.42975 | -4.64438 | 32965 ft | 408 kts | 187° |
| 2026-04-30 10:30 | 38.40163 | -4.64768 | 32454 ft | 404 kts | 187° |
| 2026-04-30 10:30 | 38.37367 | -4.65103 | 31950 ft | 401 kts | 187° |
| 2026-04-30 10:31 | 38.34587 | -4.65437 | 31445 ft | 399 kts | 187° |
| 2026-04-30 10:31 | 38.31831 | -4.65766 | 30950 ft | 396 kts | 187° |
| 2026-04-30 10:31 | 38.29089 | -4.66091 | 30460 ft | 393 kts | 187° |
| 2026-04-30 10:31 | 38.26406 | -4.66406 | 29957 ft | 391 kts | 187° |
| 2026-04-30 10:32 | 38.23706 | -4.66717 | 29453 ft | 387 kts | 187° |
| 2026-04-30 10:32 | 38.21044 | -4.67022 | 28983 ft | 382 kts | 187° |
| 2026-04-30 10:32 | 38.18403 | -4.67326 | 28511 ft | 378 kts | 187° |
| 2026-04-30 10:32 | 38.15795 | -4.67624 | 28054 ft | 373 kts | 187° |
| 2026-04-30 10:33 | 38.13247 | -4.67917 | 27610 ft | 369 kts | 187° |
| 2026-04-30 10:33 | 38.10699 | -4.68210 | 27171 ft | 366 kts | 187° |
| 2026-04-30 10:33 | 38.08157 | -4.68501 | 26735 ft | 362 kts | 187° |
| 2026-04-30 10:33 | 38.05693 | -4.68787 | 26322 ft | 358 kts | 187° |
| 2026-04-30 10:34 | 38.03226 | -4.69076 | 25909 ft | 354 kts | 187° |
| 2026-04-30 10:34 | 38.00781 | -4.69360 | 25507 ft | 351 kts | 187° |
| 2026-04-30 10:34 | 37.98355 | -4.69640 | 25106 ft | 348 kts | 187° |
| 2026-04-30 10:34 | 37.95946 | -4.69915 | 24742 ft | 346 kts | 187° |
| 2026-04-30 10:35 | 37.93549 | -4.70188 | 24357 ft | 345 kts | 187° |
| 2026-04-30 10:35 | 37.91160 | -4.70462 | 23962 ft | 343 kts | 187° |
| 2026-04-30 10:35 | 37.88809 | -4.70734 | 23554 ft | 342 kts | 187° |
| 2026-04-30 10:35 | 37.86441 | -4.71008 | 23125 ft | 340 kts | 187° |
| 2026-04-30 10:36 | 37.84093 | -4.71277 | 22724 ft | 337 kts | 187° |
| 2026-04-30 10:36 | 37.81755 | -4.71546 | 22332 ft | 334 kts | 187° |
| 2026-04-30 10:36 | 37.79444 | -4.71810 | 21935 ft | 332 kts | 187° |
| 2026-04-30 10:36 | 37.77173 | -4.72072 | 21547 ft | 331 kts | 187° |
| 2026-04-30 10:37 | 37.74884 | -4.72336 | 21146 ft | 329 kts | 187° |
| 2026-04-30 10:37 | 37.72609 | -4.72598 | 20744 ft | 327 kts | 187° |
| 2026-04-30 10:37 | 37.70337 | -4.72856 | 20341 ft | 326 kts | 187° |
| 2026-04-30 10:37 | 37.68087 | -4.73112 | 19939 ft | 324 kts | 187° |
| 2026-04-30 10:38 | 37.65841 | -4.73369 | 19538 ft | 323 kts | 187° |
| 2026-04-30 10:38 | 37.63628 | -4.73622 | 19146 ft | 322 kts | 187° |
| 2026-04-30 10:38 | 37.61392 | -4.73877 | 18752 ft | 320 kts | 187° |
| 2026-04-30 10:38 | 37.59194 | -4.74130 | 18351 ft | 319 kts | 187° |
| 2026-04-30 10:39 | 37.56988 | -4.74383 | 17923 ft | 317 kts | 187° |
| 2026-04-30 10:39 | 37.54784 | -4.74635 | 17530 ft | 315 kts | 187° |
| 2026-04-30 10:39 | 37.52607 | -4.74881 | 17154 ft | 313 kts | 187° |
| 2026-04-30 10:39 | 37.50442 | -4.75127 | 16772 ft | 311 kts | 188° |
| 2026-04-30 10:40 | 37.48287 | -4.75374 | 16399 ft | 309 kts | 187° |
| 2026-04-30 10:40 | 37.46152 | -4.75615 | 16031 ft | 308 kts | 187° |
| 2026-04-30 10:40 | 37.44049 | -4.75852 | 15661 ft | 306 kts | 188° |
| 2026-04-30 10:40 | 37.41931 | -4.76091 | 15301 ft | 305 kts | 188° |
| 2026-04-30 10:41 | 37.39821 | -4.76331 | 14938 ft | 303 kts | 188° |
| 2026-04-30 10:41 | 37.37723 | -4.76571 | 14570 ft | 302 kts | 187° |
| 2026-04-30 10:41 | 37.35627 | -4.76811 | 14208 ft | 301 kts | 187° |
| 2026-04-30 10:41 | 37.33540 | -4.77049 | 13832 ft | 300 kts | 187° |
| 2026-04-30 10:42 | 37.31491 | -4.77281 | 13439 ft | 298 kts | 187° |
| 2026-04-30 10:42 | 37.29431 | -4.77512 | 13067 ft | 296 kts | 187° |
| 2026-04-30 10:42 | 37.27389 | -4.77743 | 12700 ft | 293 kts | 187° |
| 2026-04-30 10:42 | 37.25360 | -4.77972 | 12335 ft | 291 kts | 187° |
| 2026-04-30 10:43 | 37.23337 | -4.78201 | 11898 ft | 292 kts | 187° |
| 2026-04-30 10:43 | 37.21254 | -4.78440 | 11447 ft | 304 kts | 187° |
| 2026-04-30 10:43 | 37.19162 | -4.78679 | 11069 ft | 306 kts | 187° |
| 2026-04-30 10:43 | 37.17037 | -4.78917 | 10704 ft | 305 kts | 187° |
| 2026-04-30 10:44 | 37.14931 | -4.79151 | 10340 ft | 301 kts | 187° |
| 2026-04-30 10:44 | 37.12850 | -4.79386 | 9989 ft | 298 kts | 186° |
| 2026-04-30 10:44 | 37.10812 | -4.79616 | 9601 ft | 296 kts | 186° |
| 2026-04-30 10:44 | 37.08775 | -4.79843 | 9213 ft | 293 kts | 186° |
| 2026-04-30 10:45 | 37.06740 | -4.79980 | 8823 ft | 291 kts | 178° |
| 2026-04-30 10:45 | 37.04755 | -4.79525 | 8446 ft | 290 kts | 167° |
| 2026-04-30 10:45 | 37.02809 | -4.78895 | 8072 ft | 287 kts | 167° |
| 2026-04-30 10:45 | 37.00896 | -4.78281 | 7694 ft | 285 kts | 167° |
| 2026-04-30 10:46 | 36.98986 | -4.77670 | 7337 ft | 282 kts | 167° |
| 2026-04-30 10:46 | 36.97089 | -4.77064 | 6976 ft | 280 kts | 167° |
| 2026-04-30 10:46 | 36.95204 | -4.76463 | 6614 ft | 278 kts | 167° |
| 2026-04-30 10:46 | 36.93330 | -4.75868 | 6245 ft | 277 kts | 167° |
| 2026-04-30 10:47 | 36.91463 | -4.75277 | 5873 ft | 276 kts | 167° |
| 2026-04-30 10:47 | 36.89603 | -4.74689 | 5484 ft | 275 kts | 167° |
| 2026-04-30 10:47 | 36.87756 | -4.74101 | 5110 ft | 273 kts | 167° |
| 2026-04-30 10:47 | 36.85965 | -4.73530 | 4727 ft | 256 kts | 167° |
| 2026-04-30 10:48 | 36.84294 | -4.73000 | 4329 ft | 240 kts | 167° |
| 2026-04-30 10:48 | 36.82706 | -4.72496 | 4005 ft | 232 kts | 167° |
| 2026-04-30 10:48 | 36.81175 | -4.72011 | 3630 ft | 228 kts | 167° |
| 2026-04-30 10:48 | 36.79650 | -4.71529 | 3333 ft | 223 kts | 167° |
| 2026-04-30 10:49 | 36.78206 | -4.70872 | 3032 ft | 219 kts | 150° |
| 2026-04-30 10:49 | 36.77072 | -4.69626 | 3007 ft | 219 kts | 129° |
| 2026-04-30 10:49 | 36.76303 | -4.67982 | 2989 ft | 220 kts | 119° |
| 2026-04-30 10:49 | 36.75598 | -4.66285 | 2762 ft | 220 kts | 118° |
| 2026-04-30 10:50 | 36.74894 | -4.64595 | 2486 ft | 219 kts | 118° |
| 2026-04-30 10:50 | 36.74191 | -4.62916 | 2211 ft | 217 kts | 118° |
| 2026-04-30 10:50 | 36.73513 | -4.61294 | 1921 ft | 205 kts | 118° |
| 2026-04-30 10:50 | 36.72889 | -4.59804 | 1676 ft | 182 kts | 118° |
| 2026-04-30 10:51 | 36.72332 | -4.58474 | 1446 ft | 163 kts | 118° |
| 2026-04-30 10:51 | 36.71831 | -4.57280 | 1226 ft | 150 kts | 118° |
| 2026-04-30 10:51 | 36.71347 | -4.56127 | 1035 ft | 149 kts | 118° |
| 2026-04-30 10:51 | 36.70877 | -4.55006 | 847 ft | 146 kts | 118° |
| 2026-04-30 10:52 | 36.70411 | -4.53893 | 661 ft | 143 kts | 118° |
| 2026-04-30 10:52 | 36.69944 | -4.52802 | 436 ft | 142 kts | 118° |
| 2026-04-30 10:52 | 36.69492 | -4.51722 | 301 ft | 140 kts | 117° |
| 2026-04-30 10:52 | 36.69046 | -4.50655 | 65 ft | 138 kts | 117° |
| 2026-04-30 10:53 | 36.68658 | -4.49717 | 48 ft | 95 kts | 117° |
| 2026-04-30 10:53 | 36.68445 | -4.49211 | 47 ft | 34 kts | 118° |
| 2026-04-30 10:53 | 36.68343 | -4.49008 | 44 ft | 28 kts | 134° |
| 2026-04-30 10:53 | 36.68224 | -4.48891 | 38 ft | 18 kts | 146° |
| 2026-04-30 10:54 | 36.68172 | -4.48851 | 38 ft | 6 kts | 149° |
| 2026-04-30 10:54 | 36.68136 | -4.48837 | 39 ft | 5 kts | 187° |
| 2026-04-30 10:54 | 36.68123 | -4.48862 | 38 ft | 7 kts | 264° |
| 2026-04-30 10:54 | 36.68160 | -4.48974 | 40 ft | 19 kts | 297° |
| 2026-04-30 10:55 | 36.68225 | -4.49129 | 40 ft | 20 kts | 297° |
| 2026-04-30 10:55 | 36.68278 | -4.49287 | 41 ft | 19 kts | 264° |
| 2026-04-30 10:55 | 36.68195 | -4.49414 | 42 ft | 19 kts | 221° |
| 2026-04-30 10:55 | 36.68100 | -4.49520 | 42 ft | 14 kts | 222° |
| 2026-04-30 10:56 | 36.68047 | -4.49563 | 42 ft | 8 kts | 186° |
| 2026-04-30 10:56 | 36.67998 | -4.49537 | 41 ft | 8 kts | 155° |
| 2026-04-30 10:56 | 36.67952 | -4.49532 | 42 ft | 5 kts | 180° |
| 2026-04-30 10:56 | 36.67922 | -4.49534 | 42 ft | 1 kts | 183° |
| 2026-04-30 10:57 | 36.67918 | -4.49534 | 42 ft | 1 kts | 182° |
| 2026-04-30 10:57 | 36.67917 | -4.49534 | 42 ft | 0 kts | 182° |